Aspen-Pitkin Co/Sardy Field
KASE : now visible

Airfield :











YOU CAN JOIN US ON...

 
LOGIN :

Register | Disclaimer

   EN    FR    IT 

 









Legend :    VFR   Marginal VFR   IFR   Intensive IFR   Very Intensive IFR
Visi :
Ceiling :
>= 8 km
>= 3000ft
5 to 8 km
1000 to 3000 ft
1500m to 5 km
500 to 1000 ft
800 to 1500m
200 to 500 ft
< 800m
< 200 ft
Symbols :   Thunderstorms  Fog  Heavy snow  Heavy precipitations  Wind > 20 kt






- Airport Elevation : 7820 ft


KASE - Aspen-Pitkin Co/Sardy Field

CURRENT METAR :
  • 142120Z COR 36009KT 1 1/2SM -SN BR BKN006 OVC013 M01/M02 A2965 RMK AO2 P0000 T10061022

EXPIRED METARs :
  • 142104Z 01010KT 1/2SM SN FZFG SCT005 OVC008 M01/M03 A2965 RMK AO2 P0000 T10061028
  • 142053Z 35011G19KT 1SM -SN OVC010 00/M03 A2965 RMK AO2 SNE03B34 SLP019 P0000 60001 T00001028 55014
  • 142038Z 33014G21KT 1SM -SN OVC010 01/M03 A2965 RMK AO2 SNE03B34 P0000 T00061028
  • 141953Z VRB03KT 9SM -SN SCT019 BKN040 BKN075 01/M03 A2964 RMK AO2 SNB1858 SLP013 P0000 T00111028
  • 141853Z 15009KT 10SM BKN040 BKN060 01/M03 A2967 RMK AO2 SNB01E51 SLP021 P0001 T00061033

TAF KASE
Valid from the 14 at 21:00 until the 15 at 18:00 UTC


142047Z 1421/1518 33010G20KT P6SM VCSH SCT020 OVC030
TEMPO 1421/1422 1SM -SN BR OVC010
FM142300 29009KT 3SM BR VCSH SCT020 OVC030
FM150100 30007KT 6SM BR VCSH SCT035 OVC045
FM150700 VRB04KT 6SM BR VCSH SCT045 OVC060
FM151600 VRB04KT 6SM BR VCSH SCT035 OVC070



MET'MAP, your aeronautical weather chart ! - Copyright ORBIFLY December 2007 - Disclaimer

ORBIFLY MET'MAP TEAM :

Programming & Development : Alexandra Zaïnal
Concept & original design : Baudouin d'Aumeries
Assistance for programming : Marc-Olivier Méhu
Technical & hardware support : Manuel Goepfert

Contact : metmap@orbifly.com




SOURCES & CREDITS :

   NOAA       Earth
Advisory